Time;durP1;ratioP1;P1;durP2;ratioP2;P2;SDS_P1;SDS_P2;PMS_P1;PMS_P2;Temp;Humidity;BMP_temperature;BMP_pressure;BME280_temperature;BME280_humidity;BME280_pressure;Samples;Min_cycle;Max_cycle;Signal;HPM_P1;HPM_P2
2022/03/18 00:00:33;;;;;;;49.40;23.10;;;;;;;-145.69;100.00;73341.00;5072648;28;20199;-76
2022/03/18 00:02:59;;;;;;;48.73;21.83;;;;;;;-145.69;100.00;73342.97;5074925;28;20297;-76
2022/03/18 00:05:26;;;;;;;50.40;23.80;;;;;;;-145.69;100.00;73341.00;5074747;28;20244;-76
2022/03/18 00:07:53;;;;;;;48.93;22.43;;;;;;;-145.69;100.00;73341.00;5074471;28;20199;-76
2022/03/18 00:10:20;;;;;;;55.07;25.10;;;;;;;-145.69;100.00;73344.97;5074606;28;20199;-76
2022/03/18 00:12:51;;;;;;;60.07;25.17;;;;;;;-145.69;100.00;73337.00;5074490;28;20202;-77
2022/03/18 00:15:18;;;;;;;59.27;25.70;;;;;;;-145.69;100.00;73344.97;5073681;28;20231;-76
2022/03/18 00:17:44;;;;;;;55.63;24.60;;;;;;;-145.69;100.00;73346.97;5074082;28;20223;-77
2022/03/18 00:20:13;;;;;;;62.40;26.13;;;;;;;-145.69;100.00;73348.97;5054569;28;20246;-76
2022/03/18 00:22:43;;;;;;;57.13;25.83;;;;;;;-145.69;100.00;73350.94;5054286;28;20268;-77
2022/03/18 00:25:10;;;;;;;59.17;24.63;;;;;;;-145.69;100.00;73342.97;5054150;28;20204;-76
2022/03/18 00:27:42;;;;;;;56.90;25.17;;;;;;;-145.69;100.00;73348.97;5067445;28;20230;-76
2022/03/18 00:30:11;;;;;;;58.13;24.40;;;;;;;-145.69;100.00;73348.97;5074203;28;20237;-76
2022/03/18 00:32:38;;;;;;;56.80;23.93;;;;;;;-145.69;100.00;73344.97;5074101;28;20206;-76
2022/03/18 00:35:06;;;;;;;52.13;23.30;;;;;;;-145.69;100.00;73348.97;5074036;28;20238;-76
2022/03/18 00:37:33;;;;;;;59.10;24.77;;;;;;;-145.69;100.00;73346.97;5073553;28;20223;-76
2022/03/18 00:40:06;;;;;;;61.53;25.20;;;;;;;-145.69;100.00;73350.94;5073987;28;20203;-76
2022/03/18 00:42:35;;;;;;;55.50;24.23;;;;;;;-145.69;100.00;73352.94;5073992;28;20249;-76
2022/03/18 00:45:04;;;;;;;51.27;23.47;;;;;;;-145.69;100.00;73358.91;5073679;28;20604;-76
2022/03/18 00:53:00;;;;;;;58.17;24.50;;;;;;;-145.69;100.00;73350.94;5062539;28;20778;-76
2022/03/18 00:55:26;;;;;;;56.33;24.00;;;;;;;-145.69;100.00;73348.97;5073581;28;20194;-76
2022/03/18 00:57:56;;;;;;;48.53;21.97;;;;;;;-145.69;100.00;73348.97;5073505;28;20227;-76
2022/03/18 01:00:23;;;;;;;54.63;24.37;;;;;;;-145.69;100.00;73356.91;5073470;28;20202;-75
2022/03/18 01:02:51;;;;;;;55.30;23.50;;;;;;;-145.69;100.00;73350.94;5073205;28;20703;-75
2022/03/18 01:05:18;;;;;;;58.43;23.87;;;;;;;-145.69;100.00;73352.94;5073166;28;20669;-76
2022/03/18 01:07:45;;;;;;;49.17;21.87;;;;;;;-145.69;100.00;73344.97;5073375;28;20195;-77
2022/03/18 01:10:11;;;;;;;57.47;24.73;;;;;;;-145.69;100.00;73344.97;5073134;28;20550;-76
2022/03/18 01:12:38;;;;;;;49.37;22.60;;;;;;;-145.69;100.00;73348.97;5073257;28;20202;-76
2022/03/18 01:15:05;;;;;;;51.57;22.87;;;;;;;-145.69;100.00;73356.91;5072792;28;20226;-77
2022/03/18 01:17:32;;;;;;;52.83;23.87;;;;;;;-145.69;100.00;73346.97;5073058;28;20223;-76
2022/03/18 01:20:00;;;;;;;50.40;22.00;;;;;;;-145.69;100.00;73352.94;5072813;28;20207;-77
2022/03/18 01:22:26;;;;;;;57.40;23.53;;;;;;;-145.69;100.00;73352.94;5073477;28;20205;-76
2022/03/18 01:24:53;;;;;;;50.93;23.20;;;;;;;-145.69;100.00;73341.00;5072942;28;20554;-76
2022/03/18 01:27:22;;;;;;;57.10;24.40;;;;;;;-145.69;100.00;73348.97;5072999;28;20203;-76
2022/03/18 01:29:48;;;;;;;56.03;24.77;;;;;;;-145.69;100.00;73352.94;5073007;28;20620;-77
2022/03/18 01:32:15;;;;;;;55.93;24.17;;;;;;;-145.69;100.00;73360.91;5072697;28;20191;-76
2022/03/18 01:34:44;;;;;;;53.50;24.50;;;;;;;-145.69;100.00;73352.94;5073213;28;20203;-76
2022/03/18 01:37:12;;;;;;;56.43;24.23;;;;;;;-145.69;100.00;73356.91;5073178;28;20213;-77
2022/03/18 01:39:38;;;;;;;63.47;26.20;;;;;;;-145.69;100.00;73362.88;5073052;28;20213;-76
2022/03/18 01:42:05;;;;;;;63.57;26.23;;;;;;;-145.69;100.00;73356.91;5072801;28;20206;-76
2022/03/18 01:44:39;;;;;;;65.77;28.13;;;;;;;-145.69;100.00;73358.91;5072798;28;20202;-76
2022/03/18 01:47:05;;;;;;;64.17;27.70;;;;;;;-145.69;100.00;73354.94;5073012;28;20240;-76
2022/03/18 01:49:32;;;;;;;63.10;27.73;;;;;;;-145.69;100.00;73348.97;5072906;28;20202;-76
2022/03/18 01:51:58;;;;;;;61.83;25.80;;;;;;;-145.69;100.00;73358.91;5072958;28;20203;-76
2022/03/18 01:57:11;;;;;;;67.27;27.07;;;;;;;-145.69;100.00;73370.84;5072548;28;20343;-76
2022/03/18 01:59:40;;;;;;;68.03;29.30;;;;;;;-145.69;100.00;73368.88;5072790;28;20203;-76
2022/03/18 02:02:06;;;;;;;72.00;29.03;;;;;;;-145.69;100.00;73370.84;5072772;28;20194;-76
2022/03/18 02:04:36;;;;;;;66.40;28.30;;;;;;;-145.69;100.00;73368.88;5072873;28;20210;-76
2022/03/18 02:07:03;;;;;;;71.07;29.90;;;;;;;-145.69;100.00;73364.88;5072892;28;20286;-76
2022/03/18 02:09:32;;;;;;;74.57;30.10;;;;;;;-145.69;100.00;73358.91;5072537;28;20197;-76
2022/03/18 02:11:58;;;;;;;65.97;28.40;;;;;;;-145.69;100.00;73368.88;5072767;28;20256;-77
2022/03/18 02:14:32;;;;;;;68.00;28.40;;;;;;;-145.69;100.00;73366.88;5072503;28;20227;-77
2022/03/18 02:16:59;;;;;;;73.30;30.43;;;;;;;-145.69;100.00;73370.84;5072771;28;20207;-77
2022/03/18 02:19:26;;;;;;;72.23;30.30;;;;;;;-145.69;100.00;73374.84;5072616;28;20652;-77
2022/03/18 02:21:56;;;;;;;64.70;28.03;;;;;;;-145.69;100.00;73372.84;5072087;28;20195;-77
2022/03/18 02:24:25;;;;;;;73.27;29.23;;;;;;;-145.69;100.00;73378.81;5072495;28;20304;-77
2022/03/18 02:26:54;;;;;;;80.10;32.13;;;;;;;-145.69;100.00;73368.88;5072702;28;20206;-76
2022/03/18 02:29:23;;;;;;;74.67;29.70;;;;;;;-145.69;100.00;73372.84;5072229;28;20202;-76
2022/03/18 02:31:50;;;;;;;71.30;30.77;;;;;;;-145.69;100.00;73368.88;5072684;28;20195;-76
2022/03/18 02:34:17;;;;;;;78.40;30.93;;;;;;;-145.69;100.00;73370.84;5072101;28;20203;-76
2022/03/18 02:36:44;;;;;;;76.20;31.43;;;;;;;-145.69;100.00;73378.81;5073400;28;20198;-76
2022/03/18 02:39:14;;;;;;;75.90;31.27;;;;;;;-145.69;100.00;73372.84;5075737;28;20313;-76
2022/03/18 02:41:43;;;;;;;69.37;29.17;;;;;;;-145.69;100.00;73366.88;5076311;28;20203;-76
2022/03/18 02:44:09;;;;;;;81.73;31.57;;;;;;;-145.69;100.00;73376.81;5075855;28;20201;-76
2022/03/18 02:46:36;;;;;;;84.63;34.07;;;;;;;-145.69;100.00;73372.84;5076211;28;20249;-76
2022/03/18 02:49:04;;;;;;;92.30;34.60;;;;;;;-145.69;100.00;73372.84;5076096;28;20203;-76
2022/03/18 02:51:32;;;;;;;80.47;32.77;;;;;;;-145.69;100.00;73368.88;5075824;28;20589;-76
2022/03/18 02:54:01;;;;;;;82.40;31.83;;;;;;;-145.69;100.00;73372.84;5076013;28;20256;-76
2022/03/18 02:56:27;;;;;;;76.77;31.73;;;;;;;-145.69;100.00;73372.84;5075625;28;20201;-76
2022/03/18 02:58:55;;;;;;;79.83;31.63;;;;;;;-145.69;100.00;73374.84;5075813;28;20233;-76
2022/03/18 03:01:22;;;;;;;77.63;31.17;;;;;;;-145.69;100.00;73368.88;5073770;28;20616;-76
2022/03/18 03:03:48;;;;;;;80.87;32.90;;;;;;;-145.69;100.00;73370.84;5056421;28;20610;-76
2022/03/18 03:09:00;;;;;;;78.17;30.97;;;;;;;-145.69;100.00;73376.81;5062448;28;20569;-76
2022/03/18 03:11:27;;;;;;;92.03;39.90;;;;;;;-145.69;100.00;73380.81;5074875;28;20430;-76
2022/03/18 03:13:53;;;;;;;80.83;34.33;;;;;;;-145.69;100.00;73384.78;5075367;28;20231;-76
2022/03/18 03:16:21;;;;;;;78.07;32.07;;;;;;;-145.69;100.00;73390.75;5075447;28;20203;-77
2022/03/18 03:18:48;;;;;;;85.50;32.80;;;;;;;-145.69;100.00;73378.81;5075094;28;20262;-76
2022/03/18 03:21:15;;;;;;;66.47;28.13;;;;;;;-145.69;100.00;73378.81;5075237;28;20226;-77
2022/03/18 03:23:45;;;;;;;73.43;29.97;;;;;;;-145.69;100.00;73382.81;5075209;28;20203;-76
2022/03/18 03:26:12;;;;;;;69.20;28.57;;;;;;;-145.69;100.00;73392.75;5075396;28;20209;-77
2022/03/18 03:28:42;;;;;;;66.23;28.00;;;;;;;-145.69;100.00;73392.75;5075317;28;20202;-76
2022/03/18 03:31:09;;;;;;;61.30;25.17;;;;;;;-145.69;100.00;73396.72;5075127;28;20203;-77
2022/03/18 03:33:36;;;;;;;64.97;26.40;;;;;;;-145.69;100.00;73406.69;5075116;28;20282;-76
2022/03/18 03:36:03;;;;;;;70.43;26.83;;;;;;;-145.69;100.00;73404.69;5075228;28;20202;-77
2022/03/18 03:38:30;;;;;;;75.97;27.40;;;;;;;-145.69;100.00;73404.69;5075211;28;20570;-76
2022/03/18 03:40:57;;;;;;;66.67;26.77;;;;;;;-145.69;100.00;73416.66;5074988;28;20324;-77
2022/03/18 03:43:23;;;;;;;72.57;27.37;;;;;;;-145.69;100.00;73414.66;5075013;28;20558;-77
2022/03/18 03:45:50;;;;;;;79.53;27.40;;;;;;;-145.69;100.00;73420.63;5074858;28;20205;-76
2022/03/18 03:48:16;;;;;;;125.65;33.83;;;;;;;-145.69;100.00;73416.66;5073920;28;20509;-76
2022/03/18 03:50:44;;;;;;;89.17;30.03;;;;;;;-145.69;100.00;73428.59;5075003;28;20202;-76
2022/03/18 03:53:11;;;;;;;195.30;31.80;;;;;;;-145.69;100.00;73428.59;5074869;28;20203;-76
2022/03/18 03:55:40;;;;;;;110.17;30.10;;;;;;;-145.69;100.00;73436.56;5074857;28;20248;-77
2022/03/18 03:58:07;;;;;;;103.03;28.50;;;;;;;-145.69;100.00;73444.50;5074214;28;20222;-77
2022/03/18 04:00:36;;;;;;;107.97;29.40;;;;;;;-145.69;100.00;73450.50;5074405;28;20217;-76
2022/03/18 04:03:03;;;;;;;94.43;30.87;;;;;;;-145.69;100.00;73458.44;5074352;28;20209;-76
2022/03/18 04:05:30;;;;;;;117.53;32.37;;;;;;;-145.69;100.00;73458.44;5074610;28;20202;-76
2022/03/18 04:07:58;;;;;;;121.17;32.40;;;;;;;-145.69;100.00;73460.44;5074417;28;20203;-76
2022/03/18 04:10:26;;;;;;;171.13;32.40;;;;;;;-145.69;100.00;73464.44;5074082;28;20217;-77
2022/03/18 04:12:52;;;;;;;121.20;32.07;;;;;;;-145.69;100.00;73460.44;5074249;28;20293;-77
2022/03/18 04:15:19;;;;;;;151.70;33.90;;;;;;;-145.69;100.00;73466.41;5074028;28;20231;-76
2022/03/18 04:17:47;;;;;;;123.70;32.33;;;;;;;-145.69;100.00;73470.41;5074285;28;20598;-77
2022/03/18 04:20:17;;;;;;;103.83;31.83;;;;;;;-145.69;100.00;73468.41;5073998;28;20233;-77
2022/03/18 04:22:44;;;;;;;116.17;31.83;;;;;;;-145.69;100.00;73466.41;5073915;28;20191;-77
2022/03/18 04:25:13;;;;;;;159.13;32.80;;;;;;;-145.69;100.00;73472.38;5074219;28;20203;-78
2022/03/18 04:27:40;;;;;;;145.70;31.40;;;;;;;-145.69;100.00;73480.34;5074443;28;20589;-76
2022/03/18 04:30:11;;;;;;;164.80;31.67;;;;;;;-145.69;100.00;73476.38;5074328;28;20210;-77
2022/03/18 04:32:38;;;;;;;238.67;34.10;;;;;;;-145.69;100.00;73478.34;5073904;28;20286;-77
2022/03/18 04:35:06;;;;;;;130.97;32.23;;;;;;;-145.69;100.00;73476.38;5074045;28;20206;-77
2022/03/18 04:37:35;;;;;;;134.43;31.80;;;;;;;-145.69;100.00;73474.38;5073871;28;20293;-77
2022/03/18 04:40:01;;;;;;;140.63;33.30;;;;;;;-145.69;100.00;73472.38;5073672;28;20231;-76
2022/03/18 04:42:29;;;;;;;134.73;31.20;;;;;;;-145.69;100.00;73476.38;5073787;28;20539;-77
2022/03/18 04:44:56;;;;;;;126.20;33.20;;;;;;;-145.69;100.00;73478.34;5073623;28;20198;-77
2022/03/18 04:47:25;;;;;;;112.10;33.07;;;;;;;-145.69;100.00;73480.34;5073932;28;20256;-77
2022/03/18 04:49:52;;;;;;;98.63;30.87;;;;;;;-145.69;100.00;73476.38;5073623;28;20213;-76
2022/03/18 04:52:21;;;;;;;146.93;34.50;;;;;;;-145.69;100.00;73486.31;5073459;28;20658;-77
2022/03/18 04:54:47;;;;;;;118.63;32.00;;;;;;;-145.69;100.00;73496.28;5073777;28;20202;-77
2022/03/18 04:57:18;;;;;;;112.17;30.87;;;;;;;-145.69;100.00;73488.31;5073590;28;20193;-77
2022/03/18 04:59:47;;;;;;;116.73;31.53;;;;;;;-145.69;100.00;73476.38;5073603;28;20276;-76
2022/03/18 05:02:15;;;;;;;120.50;32.73;;;;;;;-145.69;100.00;73486.31;5073234;28;20654;-75
2022/03/18 05:04:42;;;;;;;121.93;33.27;;;;;;;-145.69;100.00;73486.31;5073354;28;20203;-76
2022/03/18 05:07:38;;;;;;;117.67;32.90;;;;;;;-145.69;100.00;73492.28;5063421;28;20415;-76
2022/03/18 05:10:06;;;;;;;153.87;32.70;;;;;;;-145.69;100.00;73488.31;5053581;28;20235;-77
2022/03/18 05:12:33;;;;;;;98.27;30.27;;;;;;;-145.69;100.00;73490.31;5053213;28;20230;-77
2022/03/18 05:15:08;;;;;;;107.10;30.70;;;;;;;-145.69;100.00;73500.25;5053449;28;20238;-77
2022/03/18 05:17:58;;;;;;;129.30;33.30;;;;;;;-145.69;100.00;73512.22;5053919;28;20206;-77
2022/03/18 05:20:25;;;;;;;122.50;34.13;;;;;;;-145.69;100.00;73520.16;5054424;28;20608;-77
2022/03/18 05:22:52;;;;;;;121.77;33.13;;;;;;;-145.69;100.00;73524.16;5053177;28;20212;-77
2022/03/18 05:25:19;;;;;;;136.97;33.63;;;;;;;-145.69;100.00;73522.16;5053158;28;20233;-77
2022/03/18 05:27:45;;;;;;;163.80;33.23;;;;;;;-145.69;100.00;73520.16;5059250;28;20290;-77
2022/03/18 05:30:16;;;;;;;138.23;34.27;;;;;;;-145.69;100.00;73528.13;5073420;28;20202;-76
2022/03/18 05:32:43;;;;;;;110.83;32.27;;;;;;;-145.69;100.00;73526.16;5073073;28;20205;-77
2022/03/18 05:35:11;;;;;;;115.90;32.73;;;;;;;-145.69;100.00;73538.09;5073070;28;20207;-77
2022/03/18 05:37:37;;;;;;;161.23;32.27;;;;;;;-145.69;100.00;73540.06;5072882;28;20202;-77
2022/03/18 05:40:05;;;;;;;101.87;32.10;;;;;;;-145.69;100.00;73530.13;5072699;28;20218;-77
2022/03/18 05:42:31;;;;;;;102.53;31.00;;;;;;;-145.69;100.00;73538.09;5072892;28;20198;-77
2022/03/18 05:44:58;;;;;;;131.17;33.47;;;;;;;-145.69;100.00;73544.06;5073121;28;20226;-77
2022/03/18 05:47:25;;;;;;;99.37;31.47;;;;;;;-145.69;100.00;73548.03;5073080;28;20210;-77
2022/03/18 05:49:52;;;;;;;113.53;31.87;;;;;;;-145.69;100.00;73542.06;5073077;28;20210;-77
2022/03/18 05:52:18;;;;;;;129.23;33.67;;;;;;;-145.69;100.00;73552.03;5072702;28;20194;-77
2022/03/18 05:54:50;;;;;;;143.07;34.00;;;;;;;-145.69;100.00;73552.03;5072758;28;20650;-77
2022/03/18 05:57:15;;;;;;;122.80;33.67;;;;;;;-145.69;100.00;73558.00;5072859;28;20677;-77
2022/03/18 05:59:44;;;;;;;119.97;32.43;;;;;;;-145.69;100.00;73552.03;5072741;28;20223;-77
2022/03/18 06:02:13;;;;;;;132.20;33.40;;;;;;;-145.69;100.00;73550.03;5072978;28;20199;-77
2022/03/18 06:04:43;;;;;;;116.90;32.40;;;;;;;-145.69;100.00;73550.03;5072461;28;20238;-77
2022/03/18 06:07:13;;;;;;;113.40;32.10;;;;;;;-145.69;100.00;73552.03;5072675;28;20199;-78
2022/03/18 06:12:24;;;;;;;116.73;31.53;;;;;;;-145.69;100.00;73556.00;5074508;28;20236;-77
2022/03/18 06:14:52;;;;;;;127.03;32.43;;;;;;;-145.69;100.00;73556.00;5076622;28;20571;-78
2022/03/18 06:17:19;;;;;;;108.03;31.60;;;;;;;-145.69;100.00;73556.00;5076613;28;20195;-78
2022/03/18 06:19:46;;;;;;;125.47;32.53;;;;;;;-145.69;100.00;73563.97;5076314;28;20308;-78
2022/03/18 06:22:18;;;;;;;104.50;31.43;;;;;;;-145.69;100.00;73554.00;5076403;28;20203;-77
2022/03/18 06:24:45;;;;;;;108.57;30.93;;;;;;;-145.69;100.00;73558.00;5076374;28;20199;-77
2022/03/18 06:27:11;;;;;;;112.10;32.47;;;;;;;-145.69;100.00;73560.00;5076735;28;20276;-77
2022/03/18 06:29:42;;;;;;;99.87;31.37;;;;;;;-145.69;100.00;73561.97;5076356;28;20294;-78
2022/03/18 06:32:10;;;;;;;117.67;31.80;;;;;;;-145.69;100.00;73560.00;5076531;28;20203;-77
2022/03/18 06:34:37;;;;;;;122.80;31.67;;;;;;;-145.69;100.00;73569.94;5076208;28;20268;-77
2022/03/18 06:37:05;;;;;;;120.90;31.10;;;;;;;-145.69;100.00;73567.94;5076301;28;20221;-77
2022/03/18 06:39:34;;;;;;;111.87;32.90;;;;;;;-145.69;100.00;73579.91;5076275;28;20226;-77
2022/03/18 06:42:02;;;;;;;113.53;31.83;;;;;;;-145.69;100.00;73577.91;5076094;28;20245;-77
2022/03/18 06:44:28;;;;;;;113.03;33.30;;;;;;;-145.69;100.00;73583.88;5076458;28;20206;-77
2022/03/18 06:46:55;;;;;;;106.93;31.27;;;;;;;-145.69;100.00;73585.88;5076050;28;20566;-78
2022/03/18 06:49:23;;;;;;;110.50;31.63;;;;;;;-145.69;100.00;73579.91;5075101;28;20191;-77
2022/03/18 06:51:55;;;;;;;112.97;34.63;;;;;;;-145.69;100.00;73575.91;5076212;28;20198;-77
2022/03/18 06:54:22;;;;;;;117.03;38.22;;;;;;;-145.69;100.00;73579.91;5075556;28;20442;-77
2022/03/18 06:56:49;;;;;;;110.93;34.93;;;;;;;-145.69;100.00;73591.84;5076020;28;20565;-78
2022/03/18 06:59:16;;;;;;;105.70;33.33;;;;;;;-145.69;100.00;73579.91;5075928;28;20230;-77
2022/03/18 07:01:43;;;;;;;98.53;30.13;;;;;;;-145.69;100.00;73577.91;5075446;28;20282;-78
2022/03/18 07:04:09;;;;;;;101.93;31.83;;;;;;;-145.69;100.00;73571.94;5075754;28;20198;-77
2022/03/18 07:06:36;;;;;;;106.60;32.67;;;;;;;-145.69;100.00;73563.97;5075797;28;20222;-77
2022/03/18 07:09:05;;;;;;;97.90;31.47;;;;;;;-145.69;100.00;73571.94;5075659;28;20281;-78
2022/03/18 07:11:35;;;;;;;109.90;33.37;;;;;;;-145.69;100.00;73573.94;5072311;28;20199;-78
2022/03/18 07:14:01;;;;;;;106.23;33.77;;;;;;;-145.69;100.00;73583.88;5075086;28;20237;-77
2022/03/18 07:19:12;;;;;;;103.73;32.00;;;;;;;-145.69;100.00;73571.94;5075417;28;20225;-77
2022/03/18 07:21:38;;;;;;;116.93;35.73;;;;;;;-145.69;100.00;73579.91;5075076;28;20195;-77
2022/03/18 07:24:05;;;;;;;102.20;31.90;;;;;;;-145.69;100.00;73569.94;5074147;28;20203;-77
2022/03/18 07:26:33;;;;;;;104.73;32.70;;;;;;;-145.69;100.00;73567.94;5074497;28;20195;-77
2022/03/18 07:29:04;;;;;;;106.20;33.87;;;;;;;-145.69;100.00;73554.00;5075313;28;20221;-77
2022/03/18 07:31:30;;;;;;;96.37;32.87;;;;;;;-145.69;100.00;73554.00;5075394;28;20209;-78
2022/03/18 07:33:57;;;;;;;100.85;41.08;;;;;;;-145.69;100.00;73540.06;5074071;28;20484;-77
2022/03/18 07:36:23;;;;;;;93.90;33.67;;;;;;;-145.69;100.00;73546.06;5075270;28;20215;-77
2022/03/18 07:38:50;;;;;;;86.70;32.87;;;;;;;-145.69;100.00;73548.03;5074808;28;20554;-77
2022/03/18 07:41:17;;;;;;;88.03;32.93;;;;;;;-145.69;100.00;73552.03;5074875;28;20231;-76
2022/03/18 07:43:44;;;;;;;84.23;31.73;;;;;;;-145.69;100.00;73550.03;5075227;28;20198;-77
2022/03/18 07:46:11;;;;;;;87.43;32.43;;;;;;;-145.69;100.00;73546.06;5075156;28;20261;-77
2022/03/18 07:48:40;;;;;;;81.63;30.97;;;;;;;-145.69;100.00;73540.06;5074629;28;20198;-77
2022/03/18 07:51:06;;;;;;;84.80;31.27;;;;;;;-145.69;100.00;73546.06;5074988;28;20206;-76
2022/03/18 07:53:33;;;;;;;87.53;32.00;;;;;;;-145.69;100.00;73540.06;5074660;28;20206;-77
2022/03/18 07:55:59;;;;;;;81.13;30.93;;;;;;;-145.69;100.00;73548.03;5075127;28;20206;-77
2022/03/18 07:58:26;;;;;;;91.90;33.37;;;;;;;-145.69;100.00;73548.03;5074311;28;20213;-77
2022/03/18 08:00:53;;;;;;;87.67;33.17;;;;;;;-145.69;100.00;73544.06;5074309;28;20684;-77
2022/03/18 08:03:20;;;;;;;81.93;31.63;;;;;;;-145.69;100.00;73540.06;5074685;28;20202;-77
2022/03/18 08:05:47;;;;;;;87.17;34.13;;;;;;;-145.69;100.00;73532.13;5074341;28;20199;-77
2022/03/18 08:08:13;;;;;;;75.17;31.63;;;;;;;-145.69;100.00;73514.19;5074605;28;20588;-77
2022/03/18 08:10:40;;;;;;;89.33;33.57;;;;;;;-145.69;100.00;73504.25;5074609;28;20281;-77
2022/03/18 08:13:07;;;;;;;83.33;32.50;;;;;;;-145.69;100.00;73500.25;5074179;28;20553;-77
2022/03/18 08:15:34;;;;;;;83.37;33.20;;;;;;;-145.69;100.00;73486.31;5074426;28;20280;-77
2022/03/18 08:18:02;;;;;;;75.77;30.77;;;;;;;-145.69;100.00;73478.34;5074672;28;20203;-77
2022/03/18 08:20:30;;;;;;;74.23;31.83;;;;;;;-145.69;100.00;73454.47;5074221;28;20280;-77
2022/03/18 08:22:57;;;;;;;76.07;31.23;;;;;;;-145.69;100.00;73444.50;5074132;28;20199;-77
2022/03/18 08:25:25;;;;;;;71.90;32.13;;;;;;;-145.69;100.00;73446.50;5073970;28;20203;-77
2022/03/18 08:27:51;;;;;;;71.17;30.70;;;;;;;-145.69;100.00;73444.50;5073842;28;20202;-76
2022/03/18 08:30:22;;;;;;;75.77;31.13;;;;;;;-145.69;100.00;73448.50;5073804;28;20653;-77
2022/03/18 08:32:48;;;;;;;73.10;32.00;;;;;;;-145.69;100.00;73432.56;5074000;28;20203;-77
2022/03/18 08:35:16;;;;;;;75.47;32.00;;;;;;;-145.69;100.00;73434.56;5073561;28;20199;-77
2022/03/18 08:37:58;;;;;;;76.93;32.97;;;;;;;-145.69;100.00;73436.56;5073848;28;20203;-77
2022/03/18 08:40:25;;;;;;;75.03;31.60;;;;;;;-145.69;100.00;73428.59;5073891;28;20253;-77
2022/03/18 08:42:52;;;;;;;79.10;31.80;;;;;;;-145.69;100.00;73424.59;5073857;28;20418;-77
2022/03/18 08:45:19;;;;;;;82.70;34.30;;;;;;;-145.69;100.00;73428.59;5073683;28;20202;-77
2022/03/18 08:47:49;;;;;;;76.13;31.70;;;;;;;-145.69;100.00;73412.66;5073553;28;20657;-77
2022/03/18 08:50:17;;;;;;;69.27;31.80;;;;;;;-145.69;100.00;73406.69;5073663;28;20194;-77
2022/03/18 08:52:45;;;;;;;83.50;32.33;;;;;;;-145.69;100.00;73414.66;5073645;28;20229;-76
2022/03/18 08:55:14;;;;;;;74.87;31.50;;;;;;;-145.69;100.00;73400.72;5073505;28;20539;-77
2022/03/18 08:57:44;;;;;;;72.03;30.73;;;;;;;-145.69;100.00;73408.69;5073026;28;20198;-76
2022/03/18 09:00:14;;;;;;;74.13;32.00;;;;;;;-145.69;100.00;73408.69;5073166;28;20697;-77
2022/03/18 09:02:42;;;;;;;74.83;32.93;;;;;;;-145.69;100.00;73416.66;5073480;28;20203;-77
2022/03/18 09:05:09;;;;;;;78.23;32.87;;;;;;;-145.69;100.00;73384.78;5072054;28;20207;-77
2022/03/18 09:07:40;;;;;;;77.93;32.67;;;;;;;-145.69;100.00;73376.81;5060470;28;20187;-78
2022/03/18 09:10:08;;;;;;;74.60;31.30;;;;;;;-145.69;100.00;73368.88;5073167;28;20684;-77
2022/03/18 09:12:37;;;;;;;73.67;32.93;;;;;;;-145.69;100.00;73368.88;5073490;28;20210;-77
2022/03/18 09:15:05;;;;;;;70.53;31.13;;;;;;;-145.69;100.00;73380.81;5072971;28;20656;-77
2022/03/18 09:17:34;;;;;;;77.00;38.05;;;;;;;-145.69;100.00;73418.63;5072037;28;20468;-76
2022/03/18 09:20:00;;;;;;;68.43;31.23;;;;;;;-145.69;100.00;73428.59;5072867;28;20219;-76
2022/03/18 09:22:29;;;;;;;70.37;32.00;;;;;;;-145.69;100.00;73436.56;5073266;28;20196;-77
2022/03/18 09:24:57;;;;;;;71.03;31.50;;;;;;;-145.69;100.00;73424.59;5073018;28;20206;-77
2022/03/18 09:27:23;;;;;;;71.60;32.37;;;;;;;-145.69;100.00;73430.56;5072949;28;20210;-76
2022/03/18 09:29:50;;;;;;;74.20;31.03;;;;;;;-145.69;100.00;73416.66;5073241;28;20260;-76
2022/03/18 09:32:16;;;;;;;71.80;31.77;;;;;;;-145.69;100.00;73378.81;5072752;28;20684;-77
2022/03/18 09:34:43;;;;;;;72.67;30.97;;;;;;;-145.69;100.00;73374.84;5073112;28;20198;-77
2022/03/18 09:37:09;;;;;;;68.53;31.10;;;;;;;-145.69;100.00;73352.94;5072913;28;20677;-76
2022/03/18 09:39:36;;;;;;;69.00;30.93;;;;;;;-145.69;100.00;73331.03;5072905;28;20202;-77
2022/03/18 09:42:04;;;;;;;66.70;31.27;;;;;;;-145.69;100.00;73346.97;5072915;28;20233;-77
2022/03/18 09:44:36;;;;;;;70.97;32.00;;;;;;;-145.69;100.00;73342.97;5072837;28;20201;-77
2022/03/18 09:47:07;;;;;;;73.53;32.90;;;;;;;-145.69;100.00;73325.06;5072028;28;20301;-76
2022/03/18 09:49:46;;;;;;;68.20;31.03;;;;;;;-145.69;100.00;73327.06;5072940;28;20285;-79
2022/03/18 09:52:15;;;;;;;70.17;30.07;;;;;;;-145.69;100.00;73329.03;5072733;28;20293;-79
2022/03/18 09:54:44;;;;;;;69.80;30.60;;;;;;;-145.69;100.00;73329.03;5072744;28;20205;-76
2022/03/18 09:57:12;;;;;;;80.83;31.83;;;;;;;-145.69;100.00;73341.00;5072931;28;20202;-78
2022/03/18 09:59:40;;;;;;;70.70;31.33;;;;;;;-145.69;100.00;73344.97;5072801;28;20210;-77
2022/03/18 10:02:27;;;;;;;66.43;30.77;;;;;;;-145.69;100.00;73291.22;5072740;28;20252;-78
2022/03/18 10:04:55;;;;;;;60.77;28.80;;;;;;;-145.69;100.00;73287.25;5072569;28;20203;-79
2022/03/18 10:07:21;;;;;;;63.33;30.57;;;;;;;-145.69;100.00;73305.16;5072544;28;20199;-78
2022/03/18 10:09:49;;;;;;;65.40;29.73;;;;;;;-145.69;100.00;73275.28;5072709;28;20199;-77
2022/03/18 10:12:34;;;;;;;66.43;29.70;;;;;;;-145.69;100.00;73309.13;5073013;28;20249;-77
2022/03/18 10:15:15;;;;;;;66.73;28.80;;;;;;;-145.69;100.00;73331.03;5072267;28;20226;-79
2022/03/18 10:17:47;;;;;;;62.93;29.77;;;;;;;-145.69;100.00;73305.16;5072696;28;20224;-76
2022/03/18 10:20:28;;;;;;;70.63;30.93;;;;;;;-145.69;100.00;73279.28;5072217;28;20724;-76
2022/03/18 10:22:56;;;;;;;66.43;29.33;;;;;;;-145.69;100.00;73239.47;5072533;28;20203;-77
2022/03/18 10:25:38;;;;;;;63.80;30.63;;;;;;;-145.69;100.00;73213.56;5066013;28;20203;-76
2022/03/18 10:28:09;;;;;;;61.37;28.20;;;;;;;-145.69;100.00;73221.53;5072566;28;20209;-77
2022/03/18 10:30:38;;;;;;;59.07;27.53;;;;;;;-145.69;100.00;73201.63;5072047;28;20220;-76
2022/03/18 10:33:06;;;;;;;65.33;29.60;;;;;;;-145.69;100.00;73223.53;5072384;28;20203;-76
2022/03/18 10:38:33;;;;;;;60.83;27.87;;;;;;;-145.69;100.00;73241.44;5072290;28;20209;-78
2022/03/18 10:41:01;;;;;;;62.23;28.53;;;;;;;-145.69;100.00;73203.63;5072180;28;20833;-77
2022/03/18 10:43:46;;;;;;;58.40;26.87;;;;;;;-145.69;100.00;73191.69;5072089;28;20272;-79
2022/03/18 10:46:17;;;;;;;59.47;28.37;;;;;;;-145.69;100.00;73233.50;5072036;28;20210;-78
2022/03/18 10:49:04;;;;;;;61.13;27.77;;;;;;;-145.69;100.00;73221.53;5072161;28;20203;-78
2022/03/18 10:51:37;;;;;;;65.07;28.20;;;;;;;-145.69;100.00;73233.50;5072342;28;20260;-79
2022/03/18 10:54:08;;;;;;;58.07;28.17;;;;;;;-145.69;100.00;73231.50;5071932;28;20257;-78
2022/03/18 10:56:53;;;;;;;55.27;26.80;;;;;;;-145.69;96.82;73201.63;5072287;28;20202;-79
2022/03/18 10:59:27;;;;;;;54.27;25.80;;;;;;;-145.69;100.00;73159.84;5075080;28;20206;-78
2022/03/18 11:01:54;;;;;;;51.40;25.37;;;;;;;-145.69;95.06;73110.06;5075648;28;20230;-78
2022/03/18 11:04:23;;;;;;;50.27;24.67;;;;;;;-145.69;94.59;73082.19;5075089;28;20553;-77
2022/03/18 11:12:32;;;;;;;51.87;24.90;;;;;;;-145.69;94.13;73161.81;5055532;28;20218;-78
2022/03/18 11:15:07;;;;;;;51.70;24.80;;;;;;;-145.69;99.65;73169.78;5071089;28;20325;-78
2022/03/18 11:17:39;;;;;;;49.50;24.60;;;;;;;-145.69;94.40;73116.03;5075376;28;20209;-79
2022/03/18 11:20:10;;;;;;;52.83;25.40;;;;;;;-145.69;92.25;73086.19;5075378;28;20202;-77
2022/03/18 11:22:39;;;;;;;51.17;25.30;;;;;;;-145.69;93.70;73086.19;5075292;28;20661;-78